createdAt,value
2023-02-08T00:00:59.059Z,12.37
2023-02-08T00:03:29.012Z,8.57
2023-02-08T00:05:57.046Z,8.57
2023-02-08T00:08:25.028Z,10.67
2023-02-08T00:10:52.898Z,10.20
2023-02-08T00:13:20.805Z,9.60
2023-02-08T00:15:48.809Z,8.97
2023-02-08T00:18:18.057Z,8.37
2023-02-08T00:20:46.362Z,8.57
2023-02-08T00:23:15.156Z,10.13
2023-02-08T00:25:43.468Z,9.20
2023-02-08T00:28:18.332Z,11.37
2023-02-08T00:30:46.860Z,8.70
2023-02-08T00:33:15.910Z,8.33
2023-02-08T00:35:45.178Z,9.07
2023-02-08T00:38:13.262Z,9.47
2023-02-08T00:40:41.439Z,8.60
2023-02-08T00:43:09.603Z,10.50
2023-02-08T00:45:37.440Z,8.90
2023-02-08T00:48:05.598Z,9.67
2023-02-08T00:50:33.488Z,10.30
2023-02-08T00:53:02.796Z,9.13
2023-02-08T00:55:30.947Z,12.20
2023-02-08T00:57:58.939Z,8.70
2023-02-08T01:00:26.875Z,7.63
2023-02-08T01:02:54.862Z,8.10
2023-02-08T01:05:23.174Z,8.00
2023-02-08T01:07:51.142Z,9.90
2023-02-08T01:10:20.630Z,10.17
2023-02-08T01:12:48.639Z,8.87
2023-02-08T01:15:16.566Z,10.17
2023-02-08T01:17:44.533Z,10.43
2023-02-08T01:20:12.850Z,9.47
2023-02-08T01:22:40.758Z,8.00
2023-02-08T01:25:08.968Z,9.20
2023-02-08T01:27:38.786Z,8.00
2023-02-08T01:30:07.396Z,12.40
2023-02-08T01:32:42.676Z,9.47
2023-02-08T01:35:10.578Z,8.90
2023-02-08T01:37:38.810Z,9.03
2023-02-08T01:40:07.662Z,6.97
2023-02-08T01:42:35.554Z,9.13
2023-02-08T01:45:30.114Z,9.60
2023-02-08T01:48:04.297Z,8.73
2023-02-08T01:50:40.063Z,10.93
2023-02-08T01:53:08.577Z,8.83
2023-02-08T01:55:40.612Z,9.53
2023-02-08T01:58:11.838Z,8.70
2023-02-08T02:00:41.567Z,9.93
2023-02-08T02:03:13.964Z,8.00
2023-02-08T02:05:44.066Z,9.83
2023-02-08T02:08:13.252Z,9.83
2023-02-08T02:10:43.117Z,10.33
2023-02-08T02:13:18.109Z,8.60
2023-02-08T02:15:47.537Z,10.40
2023-02-08T02:18:23.505Z,11.10
2023-02-08T02:21:15.794Z,8.47
2023-02-08T02:24:31.109Z,8.33
2023-02-08T02:27:23.315Z,7.87
2023-02-08T02:30:28.547Z,10.53
2023-02-08T02:33:10.750Z,10.90
2023-02-08T02:35:46.616Z,8.43
2023-02-08T02:38:25.329Z,9.60
2023-02-08T02:41:03.829Z,9.43
2023-02-08T02:43:42.642Z,7.90
2023-02-08T02:46:24.058Z,9.73
2023-02-08T02:49:00.696Z,8.80
2023-02-08T02:51:34.866Z,9.80
2023-02-08T02:54:08.090Z,9.23
2023-02-08T02:56:40.179Z,8.80
2023-02-08T02:59:11.275Z,9.00
2023-02-08T03:01:39.872Z,8.40
2023-02-08T03:04:16.144Z,8.00
2023-02-08T03:07:00.962Z,9.53
2023-02-08T03:09:52.531Z,9.67
2023-02-08T03:12:35.233Z,9.47
2023-02-08T03:15:15.611Z,7.67
2023-02-08T03:17:57.451Z,9.97
2023-02-08T03:20:31.938Z,12.17
2023-02-08T03:23:03.463Z,9.97
2023-02-08T03:25:38.527Z,9.07
2023-02-08T03:28:14.882Z,8.43
2023-02-08T03:31:02.627Z,10.70
2023-02-08T03:33:37.894Z,10.23
2023-02-08T03:36:14.335Z,9.90
2023-02-08T03:38:45.073Z,10.63
2023-02-08T03:41:16.329Z,9.47
2023-02-08T03:43:47.846Z,9.13
2023-02-08T03:46:21.630Z,6.93
2023-02-08T03:48:55.939Z,8.23
2023-02-08T03:51:27.625Z,9.23
2023-02-08T03:53:57.745Z,8.10
2023-02-08T03:56:35.411Z,8.33
2023-02-08T03:59:08.017Z,8.53
2023-02-08T04:01:42.465Z,9.73
2023-02-08T04:04:12.063Z,8.83
2023-02-08T04:06:41.376Z,8.63
2023-02-08T04:09:09.261Z,8.70
2023-02-08T04:11:37.230Z,8.07
2023-02-08T04:14:05.215Z,10.03
2023-02-08T04:16:33.195Z,14.27
2023-02-08T04:19:01.031Z,8.63
2023-02-08T04:21:29.010Z,8.37
2023-02-08T04:23:58.257Z,8.40
2023-02-08T04:26:26.301Z,8.13
2023-02-08T04:28:54.386Z,9.43
2023-02-08T04:31:22.485Z,10.80
2023-02-08T04:33:50.433Z,12.00
2023-02-08T04:36:18.315Z,10.57
2023-02-08T04:38:46.339Z,8.40
2023-02-08T04:41:15.643Z,12.97
2023-02-08T04:43:43.519Z,10.97
2023-02-08T04:46:12.242Z,10.70
2023-02-08T04:48:40.540Z,10.07
2023-02-08T04:51:08.492Z,8.27
2023-02-08T04:53:36.362Z,11.33
2023-02-08T04:56:04.367Z,9.43
2023-02-08T04:58:33.712Z,10.17
2023-02-08T05:01:01.629Z,11.03
2023-02-08T05:03:29.564Z,8.67
2023-02-08T05:05:58.900Z,9.57
2023-02-08T05:08:27.492Z,10.17
2023-02-08T05:10:55.732Z,8.80
2023-02-08T05:13:23.742Z,11.00
2023-02-08T05:15:53.155Z,9.87
2023-02-08T05:18:21.128Z,8.33
2023-02-08T05:20:55.832Z,12.20
2023-02-08T05:23:23.804Z,10.40
2023-02-08T05:25:52.224Z,9.53
2023-02-08T05:28:20.664Z,9.00
2023-02-08T05:30:48.777Z,9.53
2023-02-08T05:33:18.737Z,11.10
2023-02-08T05:35:47.023Z,10.23
2023-02-08T05:38:14.928Z,10.33
2023-02-08T05:40:43.072Z,7.93
2023-02-08T05:43:11.004Z,9.90
2023-02-08T05:45:38.967Z,9.43
2023-02-08T05:48:07.056Z,10.73
2023-02-08T05:50:36.320Z,10.07
2023-02-08T05:53:04.292Z,9.40
2023-02-08T05:55:32.202Z,9.80
2023-02-08T05:58:00.177Z,10.40
2023-02-08T06:00:28.125Z,11.87
2023-02-08T06:02:56.042Z,10.40
2023-02-08T06:05:24.077Z,9.17
2023-02-08T06:07:53.341Z,9.80
2023-02-08T06:10:21.437Z,11.63
2023-02-08T06:12:49.364Z,10.40
2023-02-08T06:15:17.533Z,10.30
2023-02-08T06:17:45.376Z,11.63
2023-02-08T06:20:14.428Z,10.17
2023-02-08T06:22:42.348Z,11.43
2023-02-08T06:25:11.848Z,9.17
2023-02-08T06:27:39.855Z,10.37
2023-02-08T06:30:08.196Z,9.30
2023-02-08T06:32:36.182Z,9.50
2023-02-08T06:35:04.262Z,12.67
2023-02-08T06:37:32.475Z,11.00
2023-02-08T06:40:01.877Z,9.37
2023-02-08T06:42:31.277Z,10.50
2023-02-08T06:44:59.332Z,11.20
2023-02-08T06:47:27.973Z,9.67
2023-02-08T06:49:56.130Z,12.80
2023-02-08T06:52:24.075Z,10.37
2023-02-08T06:54:51.974Z,10.53
2023-02-08T06:57:19.886Z,12.87
2023-02-08T06:59:49.208Z,8.97
2023-02-08T07:02:19.024Z,11.87
2023-02-08T07:04:47.396Z,10.03
2023-02-08T07:07:16.515Z,10.43
2023-02-08T07:09:44.419Z,11.63
2023-02-08T07:12:12.394Z,9.60
2023-02-08T07:14:42.678Z,11.00
2023-02-08T07:17:13.146Z,12.10
2023-02-08T07:19:41.212Z,11.90
2023-02-08T07:22:09.235Z,9.37
2023-02-08T07:24:38.263Z,9.97
2023-02-08T07:27:07.713Z,12.00
2023-02-08T07:29:36.505Z,11.23
2023-02-08T07:32:06.490Z,9.70
2023-02-08T07:34:37.918Z,13.10
2023-02-08T07:37:05.929Z,10.77
2023-02-08T07:39:33.803Z,9.73
2023-02-08T07:42:01.843Z,11.73
2023-02-08T07:44:35.914Z,12.27
2023-02-08T07:47:03.814Z,12.30
2023-02-08T07:49:31.762Z,14.33
2023-02-08T07:52:01.244Z,11.70
2023-02-08T07:54:29.430Z,9.87
2023-02-08T07:56:57.398Z,12.87
2023-02-08T07:59:25.485Z,11.63
2023-02-08T08:01:53.484Z,10.77
2023-02-08T08:04:22.044Z,12.53
2023-02-08T08:06:51.472Z,9.53
2023-02-08T08:09:21.346Z,11.97
2023-02-08T08:11:49.387Z,12.53
2023-02-08T08:14:17.250Z,12.53
2023-02-08T08:16:45.154Z,11.17
2023-02-08T08:19:13.340Z,15.83
2023-02-08T08:21:41.374Z,15.30
2023-02-08T08:24:09.376Z,14.77
2023-02-08T08:26:38.661Z,17.57
2023-02-08T08:29:07.085Z,20.13
2023-02-08T08:31:35.479Z,14.67
2023-02-08T08:34:03.505Z,15.40
2023-02-08T08:36:31.513Z,18.97
2023-02-08T08:38:59.355Z,14.07
2023-02-08T08:41:28.439Z,12.50
2023-02-08T08:43:57.649Z,16.63
2023-02-08T08:46:25.502Z,13.07
2023-02-08T08:48:53.634Z,14.20
2023-02-08T08:51:21.542Z,14.20
2023-02-08T08:53:49.597Z,13.83
2023-02-08T08:56:17.457Z,12.90
2023-02-08T08:58:45.328Z,12.37
2023-02-08T09:01:14.637Z,11.57
2023-02-08T09:03:42.531Z,10.10
2023-02-08T09:06:10.426Z,15.97
2023-02-08T09:08:38.690Z,17.03
2023-02-08T09:11:07.661Z,13.23
2023-02-08T09:13:35.873Z,14.00
2023-02-08T09:16:08.310Z,12.83
2023-02-08T09:18:38.076Z,12.13
2023-02-08T09:21:09.911Z,11.83
2023-02-08T09:23:38.240Z,11.93
2023-02-08T09:26:07.669Z,14.43
2023-02-08T09:28:35.732Z,12.43
2023-02-08T09:31:09.137Z,14.93
2023-02-08T09:33:38.414Z,14.80
2023-02-08T09:36:07.667Z,13.23
2023-02-08T09:38:35.661Z,13.00
2023-02-08T09:41:15.212Z,14.50
2023-02-08T09:43:51.153Z,12.37
2023-02-08T09:46:22.015Z,18.13
2023-02-08T09:48:53.539Z,16.00
2023-02-08T09:51:30.240Z,15.23
2023-02-08T09:54:02.984Z,14.03
2023-02-08T09:56:36.201Z,12.50
2023-02-08T09:59:06.179Z,15.00
2023-02-08T10:01:37.004Z,16.17
2023-02-08T10:04:13.247Z,13.87
2023-02-08T10:06:41.264Z,15.43
2023-02-08T10:09:15.350Z,23.23
2023-02-08T10:11:56.380Z,16.67
2023-02-08T10:14:40.571Z,15.37
2023-02-08T10:17:25.288Z,14.50
2023-02-08T10:20:05.153Z,16.20
2023-02-08T10:22:45.690Z,12.30
2023-02-08T10:25:28.438Z,19.20
2023-02-08T10:28:12.639Z,14.07
2023-02-08T10:30:48.343Z,12.90
2023-02-08T10:33:22.754Z,15.10
2023-02-08T10:35:54.918Z,16.67
2023-02-08T10:38:44.206Z,23.13
2023-02-08T10:41:19.447Z,17.90
2023-02-08T10:43:54.101Z,20.60
2023-02-08T10:46:28.923Z,16.40
2023-02-08T10:49:08.154Z,11.90
2023-02-08T10:51:37.799Z,18.67
2023-02-08T10:54:05.908Z,17.07
2023-02-08T10:56:47.522Z,17.63
2023-02-08T10:59:19.856Z,22.10
2023-02-08T11:01:49.440Z,19.80
2023-02-08T11:04:18.663Z,24.40
2023-02-08T11:06:49.777Z,20.43
2023-02-08T11:09:26.377Z,30.00
2023-02-08T11:11:55.658Z,15.27
2023-02-08T11:14:40.979Z,14.00
2023-02-08T11:17:25.989Z,23.53
2023-02-08T11:19:54.320Z,13.20
2023-02-08T11:22:25.821Z,14.27
2023-02-08T11:24:59.106Z,12.63
2023-02-08T11:27:34.663Z,13.17
2023-02-08T11:30:21.473Z,15.23
2023-02-08T11:33:09.739Z,15.07
2023-02-08T11:35:37.782Z,15.00
2023-02-08T11:38:07.169Z,12.67
2023-02-08T11:40:37.738Z,16.73
2023-02-08T11:43:06.171Z,15.23
2023-02-08T11:45:37.124Z,13.23
2023-02-08T11:48:06.536Z,14.40
2023-02-08T11:50:37.432Z,13.10
2023-02-08T11:53:21.145Z,11.73
2023-02-08T11:56:03.588Z,9.47
2023-02-08T11:58:31.693Z,10.70
2023-02-08T12:01:02.367Z,10.47
2023-02-08T12:03:33.752Z,10.97
2023-02-08T12:06:21.994Z,12.00
2023-02-08T12:09:00.021Z,11.50
2023-02-08T12:11:34.775Z,11.10
2023-02-08T12:14:37.276Z,10.23
2023-02-08T12:17:51.571Z,10.17
2023-02-08T12:20:39.004Z,10.20
2023-02-08T12:23:36.692Z,13.27
2023-02-08T12:26:16.250Z,9.77
2023-02-08T12:29:13.642Z,10.23
2023-02-08T12:31:58.622Z,8.23
2023-02-08T12:34:45.569Z,7.97
2023-02-08T12:37:47.035Z,9.87
2023-02-08T12:40:46.134Z,7.23
2023-02-08T12:43:28.450Z,7.30
2023-02-08T12:46:30.433Z,7.33
2023-02-08T12:49:10.138Z,9.23
2023-02-08T12:51:46.397Z,8.27
2023-02-08T12:54:19.372Z,6.67
2023-02-08T12:57:01.614Z,8.37
2023-02-08T12:59:36.697Z,7.60
2023-02-08T13:02:14.601Z,7.87
2023-02-08T13:04:47.174Z,6.50
2023-02-08T13:07:19.457Z,8.10
2023-02-08T13:09:53.163Z,10.40
2023-02-08T13:12:26.831Z,6.03
2023-02-08T13:15:03.107Z,6.53
2023-02-08T13:17:41.011Z,8.27
2023-02-08T13:20:32.542Z,6.97
2023-02-08T13:23:04.434Z,6.77
2023-02-08T13:25:35.280Z,9.20
2023-02-08T13:28:05.061Z,7.33
2023-02-08T13:30:37.091Z,8.83
2023-02-08T13:33:14.823Z,7.80
2023-02-08T13:35:43.104Z,8.27
2023-02-08T13:38:23.401Z,6.83
2023-02-08T13:41:04.835Z,7.83
2023-02-08T13:43:40.007Z,7.37
2023-02-08T13:46:11.495Z,9.90
2023-02-08T13:48:45.576Z,7.13
2023-02-08T13:51:56.111Z,7.73
2023-02-08T13:54:24.119Z,7.67
2023-02-08T13:56:53.284Z,14.93
2023-02-08T13:59:36.509Z,7.80
2023-02-08T14:02:28.119Z,6.63
2023-02-08T14:05:23.114Z,6.53
2023-02-08T14:07:51.321Z,7.03
2023-02-08T14:10:31.953Z,8.53
2023-02-08T14:13:04.343Z,6.00
2023-02-08T14:15:37.910Z,6.33
2023-02-08T14:18:23.895Z,12.30
2023-02-08T14:21:07.407Z,8.93
2023-02-08T14:23:40.555Z,7.53
2023-02-08T14:26:20.674Z,6.90
2023-02-08T14:28:55.800Z,5.77
2023-02-08T14:31:26.072Z,7.93
2023-02-08T14:33:57.347Z,8.00
2023-02-08T14:36:31.488Z,7.83
2023-02-08T14:39:24.784Z,9.40
2023-02-08T14:41:57.087Z,5.80
2023-02-08T14:44:57.125Z,8.03
2023-02-08T14:48:05.167Z,9.20
2023-02-08T14:50:39.552Z,7.63
2023-02-08T14:53:31.948Z,9.17
2023-02-08T14:56:06.201Z,7.80
2023-02-08T14:58:37.617Z,10.73
2023-02-08T15:01:13.883Z,8.90
2023-02-08T15:03:43.028Z,7.73
2023-02-08T15:06:50.989Z,8.53
2023-02-08T15:09:22.708Z,6.63
2023-02-08T15:11:58.926Z,9.53
2023-02-08T15:14:27.485Z,9.43
2023-02-08T15:16:57.038Z,9.07
2023-02-08T15:19:28.859Z,9.97
2023-02-08T15:22:18.379Z,11.13
2023-02-08T15:24:53.561Z,8.70
2023-02-08T15:27:23.598Z,11.60
2023-02-08T15:29:51.560Z,8.67
2023-02-08T15:32:22.190Z,8.43
2023-02-08T15:34:55.003Z,8.53
2023-02-08T15:37:24.672Z,8.57
2023-02-08T15:39:54.838Z,10.10
2023-02-08T15:42:25.595Z,9.27
2023-02-08T15:44:54.277Z,11.93
2023-02-08T15:47:28.668Z,11.13
2023-02-08T15:49:57.769Z,8.60
2023-02-08T15:52:29.606Z,11.67
2023-02-08T15:54:57.637Z,12.47
2023-02-08T15:57:36.877Z,9.60
2023-02-08T16:00:07.395Z,10.30
2023-02-08T16:02:36.397Z,9.17
2023-02-08T16:05:17.818Z,8.00
2023-02-08T16:07:47.983Z,8.23
2023-02-08T16:10:30.368Z,8.70
2023-02-08T16:13:00.756Z,10.53
2023-02-08T16:15:40.588Z,9.30
2023-02-08T16:18:33.703Z,8.97
2023-02-08T16:21:03.254Z,8.80
2023-02-08T16:23:34.121Z,8.67
2023-02-08T16:26:17.136Z,9.00
2023-02-08T16:28:45.069Z,11.23
2023-02-08T16:31:13.077Z,8.77
2023-02-08T16:33:41.139Z,8.93
2023-02-08T16:36:22.206Z,7.90
2023-02-08T16:39:22.665Z,8.23
2023-02-08T16:42:20.691Z,9.67
2023-02-08T16:45:07.265Z,8.60
2023-02-08T16:47:39.620Z,9.53
2023-02-08T16:50:08.916Z,10.97
2023-02-08T16:52:37.243Z,9.93
2023-02-08T16:55:07.499Z,8.67
2023-02-08T16:57:41.552Z,10.77
2023-02-08T17:00:26.416Z,10.63
2023-02-08T17:02:55.175Z,10.67
2023-02-08T17:05:26.126Z,9.73
2023-02-08T17:07:54.325Z,11.00
2023-02-08T17:10:28.665Z,10.23
2023-02-08T17:13:13.467Z,10.70
2023-02-08T17:15:46.208Z,10.63
2023-02-08T17:18:14.517Z,10.60
2023-02-08T17:20:42.681Z,12.77
2023-02-08T17:23:11.480Z,11.80
2023-02-08T17:25:41.039Z,12.83
2023-02-08T17:28:12.433Z,11.83
2023-02-08T17:30:43.561Z,9.93
2023-02-08T17:33:17.873Z,14.30
2023-02-08T17:35:46.869Z,10.30
2023-02-08T17:38:15.509Z,11.27
2023-02-08T17:40:45.328Z,14.10
2023-02-08T17:43:14.225Z,17.40
2023-02-08T17:45:44.457Z,14.20
2023-02-08T17:48:14.211Z,13.33
2023-02-08T17:50:46.453Z,10.63
2023-02-08T17:53:15.870Z,11.70
2023-02-08T17:55:46.201Z,10.47
2023-02-08T17:58:14.530Z,14.57
2023-02-08T18:00:42.510Z,12.73
2023-02-08T18:03:11.212Z,13.33
2023-02-08T18:05:39.789Z,13.03
2023-02-08T18:08:07.735Z,13.00
2023-02-08T18:10:35.598Z,12.53
2023-02-08T18:13:04.857Z,16.27
2023-02-08T18:15:32.764Z,20.73
2023-02-08T18:18:00.702Z,18.27
2023-02-08T18:20:28.748Z,20.97
2023-02-08T18:22:56.635Z,18.33
2023-02-08T18:25:24.545Z,16.77
2023-02-08T18:27:52.513Z,20.57
2023-02-08T18:30:22.703Z,17.93
2023-02-08T18:32:50.590Z,16.00
2023-02-08T18:35:18.672Z,17.10
2023-02-08T18:37:49.387Z,17.87
2023-02-08T18:40:17.631Z,19.43
2023-02-08T18:42:45.516Z,19.83
2023-02-08T18:45:13.408Z,14.00
2023-02-08T18:47:42.628Z,16.40
2023-02-08T18:50:10.926Z,17.13
2023-02-08T18:52:39.017Z,18.37
2023-02-08T18:55:07.745Z,17.77
2023-02-08T18:57:38.775Z,16.70
2023-02-08T19:00:08.921Z,15.43
2023-02-08T19:02:39.363Z,18.43
2023-02-08T19:05:09.084Z,16.73
2023-02-08T19:07:38.675Z,19.07
2023-02-08T19:10:08.022Z,16.43
2023-02-08T19:12:37.231Z,19.43
2023-02-08T19:15:05.963Z,17.03
2023-02-08T19:17:33.922Z,16.83
2023-02-08T19:20:01.907Z,16.93
2023-02-08T19:22:31.160Z,18.03
2023-02-08T19:24:59.016Z,17.30
2023-02-08T19:27:26.899Z,16.60
2023-02-08T19:29:56.195Z,15.57
2023-02-08T19:32:24.754Z,20.37
2023-02-08T19:34:52.639Z,16.43
2023-02-08T19:37:20.626Z,17.77
2023-02-08T19:39:49.924Z,15.40
2023-02-08T19:42:17.832Z,18.57
2023-02-08T19:44:45.699Z,15.97
2023-02-08T19:47:13.619Z,19.20
2023-02-08T19:49:41.518Z,18.17
2023-02-08T19:52:09.389Z,17.43
2023-02-08T19:54:37.642Z,18.33
2023-02-08T19:57:11.521Z,15.27
2023-02-08T19:59:39.446Z,16.97
2023-02-08T20:02:07.887Z,14.97
2023-02-08T20:04:35.793Z,17.20
2023-02-08T20:07:04.084Z,17.37
2023-02-08T20:09:32.251Z,17.53
2023-02-08T20:12:00.326Z,15.83
2023-02-08T20:14:33.695Z,19.70
2023-02-08T20:17:01.909Z,14.93
2023-02-08T20:19:30.084Z,16.47
2023-02-08T20:21:58.091Z,16.80
2023-02-08T20:24:25.988Z,16.87
2023-02-08T20:26:54.183Z,16.57
2023-02-08T20:29:22.700Z,17.90
2023-02-08T20:31:55.576Z,16.47
2023-02-08T20:34:23.614Z,15.13
2023-02-08T20:37:06.231Z,17.90
2023-02-08T20:39:35.298Z,19.27
2023-02-08T20:42:03.225Z,18.50
2023-02-08T20:44:31.729Z,20.40
2023-02-08T20:47:01.188Z,17.33
2023-02-08T20:49:30.688Z,17.37
2023-02-08T20:51:58.574Z,15.63
2023-02-08T20:54:26.457Z,17.43
2023-02-08T20:56:54.811Z,17.83
2023-02-08T20:59:23.053Z,14.90
2023-02-08T21:01:51.128Z,19.00
2023-02-08T21:04:23.250Z,18.47
2023-02-08T21:06:52.008Z,15.90
2023-02-08T21:09:21.067Z,18.40
2023-02-08T21:11:49.451Z,17.27
2023-02-08T21:14:20.603Z,18.17
2023-02-08T21:16:49.507Z,20.03
2023-02-08T21:19:17.840Z,19.93
2023-02-08T21:21:50.602Z,19.50
2023-02-08T21:24:18.684Z,19.03
2023-02-08T21:26:46.688Z,19.03
2023-02-08T21:29:14.558Z,16.70
2023-02-08T21:31:42.619Z,17.23
2023-02-08T21:34:11.815Z,18.50
2023-02-08T21:36:40.025Z,17.53
2023-02-08T21:39:09.318Z,18.73
2023-02-08T21:41:37.542Z,17.97
2023-02-08T21:44:08.294Z,19.30
2023-02-08T21:46:36.723Z,17.47
2023-02-08T21:49:22.297Z,18.00
2023-02-08T21:52:07.738Z,17.27
2023-02-08T21:54:43.921Z,17.23
2023-02-08T21:57:18.681Z,19.80
2023-02-08T21:59:47.082Z,18.13
2023-02-08T22:02:17.135Z,15.37
2023-02-08T22:05:02.342Z,17.77
2023-02-08T22:07:30.693Z,17.87
2023-02-08T22:09:59.919Z,17.30
2023-02-08T22:12:27.789Z,15.80
2023-02-08T22:14:55.768Z,18.27
2023-02-08T22:17:24.288Z,17.83
2023-02-08T22:19:52.437Z,17.50
2023-02-08T22:22:20.336Z,17.23
2023-02-08T22:24:48.280Z,17.40
2023-02-08T22:27:17.560Z,17.03
2023-02-08T22:29:45.422Z,18.20
2023-02-08T22:32:16.812Z,14.50
2023-02-08T22:34:45.375Z,17.50
2023-02-08T22:37:13.831Z,16.73
2023-02-08T22:39:42.192Z,17.37
2023-02-08T22:42:13.748Z,16.03
2023-02-08T22:44:45.748Z,20.67
2023-02-08T22:47:14.364Z,17.83
2023-02-08T22:49:42.698Z,17.00
2023-02-08T22:52:12.108Z,17.33
2023-02-08T22:54:40.119Z,15.03
2023-02-08T22:57:09.554Z,14.03
2023-02-08T22:59:38.646Z,14.67
2023-02-08T23:02:07.945Z,16.97
2023-02-08T23:04:36.906Z,15.63
2023-02-08T23:07:05.359Z,16.57
2023-02-08T23:09:33.252Z,15.67
2023-02-08T23:12:01.139Z,15.77
2023-02-08T23:14:28.995Z,15.10
2023-02-08T23:16:56.920Z,13.63
2023-02-08T23:19:26.471Z,15.07
2023-02-08T23:21:54.406Z,13.07
2023-02-08T23:24:22.332Z,13.23
2023-02-08T23:26:50.221Z,14.23
2023-02-08T23:29:18.200Z,14.03
2023-02-08T23:31:46.181Z,18.00
2023-02-08T23:34:14.279Z,15.70
2023-02-08T23:36:43.852Z,15.57
2023-02-08T23:39:11.753Z,14.80
2023-02-08T23:41:39.663Z,15.47
2023-02-08T23:44:07.635Z,13.53
2023-02-08T23:46:35.743Z,15.20
2023-02-08T23:49:03.795Z,17.10
2023-02-08T23:51:31.679Z,15.17
2023-02-08T23:54:00.964Z,15.33
2023-02-08T23:56:31.859Z,12.83
2023-02-08T23:59:00.562Z,13.57
